Time;durP1;ratioP1;P1;durP2;ratioP2;P2;SDS_P1;SDS_P2;PMS_P1;PMS_P2;Temp;Humidity;BMP_temperature;BMP_pressure;BME280_temperature;BME280_humidity;BME280_pressure;Samples;Min_cycle;Max_cycle;Signal;HPM_P1;HPM_P2
2022/01/09 00:00:25;;;;;;;8.50;7.68;;;;;;;;;;4997665;28;92187;-74
2022/01/09 00:02:52;;;;;;;7.93;7.22;;;;;;;;;;4999005;28;95285;-75
2022/01/09 00:05:20;;;;;;;10.27;9.38;;;;;;;;;;4997555;28;92256;-74
2022/01/09 00:07:46;;;;;;;11.20;10.10;;;;;;;;;;4997650;28;92843;-74
2022/01/09 00:10:13;;;;;;;11.05;9.85;;;;;;;;;;4996117;28;92883;-74
2022/01/09 00:12:39;;;;;;;37.05;9.10;;;;;;;;;;4996757;28;92458;-74
2022/01/09 00:15:06;;;;;;;8.07;7.38;;;;;;;;;;4997597;28;93653;-74
2022/01/09 00:17:33;;;;;;;7.38;6.78;;;;;;;;;;4996949;28;93988;-75
2022/01/09 00:19:59;;;;;;;7.70;7.10;;;;;;;;;;4997842;28;91652;-75
2022/01/09 00:22:36;;;;;;;6.95;6.35;;;;;;;;;;4996331;28;92641;-76
2022/01/09 00:25:03;;;;;;;7.05;6.45;;;;;;;;;;4999930;28;94812;-74
2022/01/09 00:27:29;;;;;;;6.75;6.22;;;;;;;;;;4995627;28;95200;-75
2022/01/09 00:29:55;;;;;;;9.98;6.50;;;;;;;;;;4995839;28;94648;-74
2022/01/09 00:32:22;;;;;;;7.70;4.43;;;;;;;;;;4997374;28;92378;-74
2022/01/09 00:34:48;;;;;;;12.13;3.65;;;;;;;;;;4997045;28;92528;-73
2022/01/09 00:37:15;;;;;;;11.38;4.03;;;;;;;;;;4996550;28;93868;-74
2022/01/09 00:39:41;;;;;;;14.63;3.83;;;;;;;;;;4997065;28;92403;-75
2022/01/09 00:42:07;;;;;;;13.30;3.28;;;;;;;;;;4997041;28;92697;-74
2022/01/09 00:44:34;;;;;;;19.60;3.58;;;;;;;;;;4997364;28;92738;-74
2022/01/09 00:47:00;;;;;;;23.55;3.22;;;;;;;;;;5000177;28;92202;-75
2022/01/09 00:49:27;;;;;;;13.18;2.65;;;;;;;;;;4996709;28;93742;-74
2022/01/09 00:51:53;;;;;;;20.73;3.25;;;;;;;;;;4994811;28;94756;-74
2022/01/09 00:54:20;;;;;;;19.73;3.50;;;;;;;;;;4996604;28;96149;-74
2022/01/09 00:56:46;;;;;;;15.90;3.20;;;;;;;;;;4995683;28;93874;-74
2022/01/09 00:59:13;;;;;;;24.45;3.88;;;;;;;;;;4996840;28;92290;-74
2022/01/09 01:01:39;;;;;;;21.80;4.55;;;;;;;;;;4996972;28;93571;-75
2022/01/09 01:04:05;;;;;;;28.35;4.28;;;;;;;;;;4996613;28;93553;-76
2022/01/09 01:06:32;;;;;;;31.50;4.68;;;;;;;;;;4999297;28;92330;-74
2022/01/09 01:08:58;;;;;;;36.30;4.32;;;;;;;;;;5000335;28;92829;-75
2022/01/09 01:11:24;;;;;;;33.78;5.13;;;;;;;;;;5002504;28;92323;-75
2022/01/09 01:13:51;;;;;;;30.77;4.28;;;;;;;;;;4999519;28;93428;-74
2022/01/09 01:16:17;;;;;;;39.88;5.32;;;;;;;;;;4998389;28;96012;-75
2022/01/09 01:18:45;;;;;;;42.03;5.80;;;;;;;;;;4997139;28;92224;-75
2022/01/09 01:21:12;;;;;;;42.47;5.47;;;;;;;;;;4996208;28;93277;-75
2022/01/09 01:23:38;;;;;;;30.40;5.55;;;;;;;;;;4998750;28;93857;-74
2022/01/09 01:26:05;;;;;;;46.25;4.95;;;;;;;;;;5000036;28;92401;-74
2022/01/09 01:28:32;;;;;;;39.33;5.25;;;;;;;;;;5002887;28;93424;-74
2022/01/09 01:30:58;;;;;;;36.03;5.57;;;;;;;;;;4998777;28;92364;-75
2022/01/09 01:33:24;;;;;;;48.92;5.75;;;;;;;;;;5000456;28;93372;-75
2022/01/09 01:35:51;;;;;;;41.00;5.57;;;;;;;;;;4999213;28;94024;-74
2022/01/09 01:38:17;;;;;;;45.40;6.28;;;;;;;;;;5014475;28;92401;-74
2022/01/09 01:40:44;;;;;;;38.03;6.10;;;;;;;;;;5038527;28;94588;-75
2022/01/09 01:43:10;;;;;;;51.33;6.18;;;;;;;;;;5039577;28;93193;-74
2022/01/09 01:45:37;;;;;;;43.95;7.15;;;;;;;;;;5039782;28;92420;-75
2022/01/09 01:48:06;;;;;;;50.45;6.70;;;;;;;;;;5039770;28;93480;-74
2022/01/09 01:50:37;;;;;;;34.42;4.78;;;;;;;;;;5041740;28;93561;-74
2022/01/09 01:53:06;;;;;;;48.63;6.10;;;;;;;;;;5037941;28;93658;-74
2022/01/09 01:55:36;;;;;;;42.55;5.07;;;;;;;;;;5037323;28;93307;-75
2022/01/09 01:58:04;;;;;;;33.13;4.88;;;;;;;;;;5038535;28;91691;-74
2022/01/09 02:00:30;;;;;;;39.10;5.43;;;;;;;;;;5038234;28;92368;-75
2022/01/09 02:02:59;;;;;;;43.70;5.63;;;;;;;;;;5039457;27;93126;-75
2022/01/09 02:05:26;;;;;;;42.80;5.18;;;;;;;;;;5038059;27;94584;-74
2022/01/09 02:07:53;;;;;;;40.25;5.63;;;;;;;;;;5038728;28;95460;-74
2022/01/09 02:10:20;;;;;;;42.90;5.40;;;;;;;;;;5039125;28;92711;-74
2022/01/09 02:12:46;;;;;;;38.10;6.00;;;;;;;;;;5042668;28;92415;-75
2022/01/09 02:15:27;;;;;;;30.75;5.07;;;;;;;;;;5039158;28;93587;-74
2022/01/09 02:17:53;;;;;;;38.80;5.18;;;;;;;;;;5038647;28;92591;-75
2022/01/09 02:20:20;;;;;;;42.38;5.75;;;;;;;;;;5038910;28;92509;-75
2022/01/09 02:22:46;;;;;;;33.38;4.88;;;;;;;;;;5039428;27;92720;-75
2022/01/09 02:25:13;;;;;;;39.40;5.45;;;;;;;;;;5039179;28;92389;-74
2022/01/09 02:27:39;;;;;;;36.05;5.65;;;;;;;;;;5039199;28;93422;-73
2022/01/09 02:30:06;;;;;;;34.03;4.55;;;;;;;;;;5037291;28;95093;-74
2022/01/09 02:32:33;;;;;;;36.33;4.65;;;;;;;;;;5037319;28;92365;-74
2022/01/09 02:34:59;;;;;;;37.45;5.95;;;;;;;;;;5041129;27;93661;-75
2022/01/09 02:37:25;;;;;;;32.95;5.20;;;;;;;;;;5037030;28;92377;-73
2022/01/09 02:39:53;;;;;;;35.67;4.15;;;;;;;;;;5038903;28;93304;-74
2022/01/09 02:42:21;;;;;;;27.05;4.22;;;;;;;;;;5038295;28;93459;-75
2022/01/09 02:44:47;;;;;;;31.17;4.25;;;;;;;;;;5038812;28;92283;-73
2022/01/09 02:47:14;;;;;;;30.60;4.35;;;;;;;;;;5039059;28;93380;-74
2022/01/09 02:49:45;;;;;;;25.83;4.35;;;;;;;;;;5038635;28;93626;-74
2022/01/09 02:52:24;;;;;;;26.33;3.88;;;;;;;;;;5038815;28;92496;-74
2022/01/09 02:57:36;;;;;;;38.72;4.72;;;;;;;;;;5041575;28;92759;-74
2022/01/09 03:00:04;;;;;;;29.67;4.13;;;;;;;;;;5037597;28;93906;-73
2022/01/09 03:02:30;;;;;;;33.30;4.75;;;;;;;;;;5038546;28;94161;-73
2022/01/09 03:04:57;;;;;;;31.00;5.07;;;;;;;;;;5038682;28;92325;-73
2022/01/09 03:07:24;;;;;;;29.20;5.10;;;;;;;;;;5038110;28;93531;-74
2022/01/09 03:09:50;;;;;;;38.42;4.90;;;;;;;;;;5038190;28;93652;-74
2022/01/09 03:12:17;;;;;;;30.67;5.10;;;;;;;;;;5038898;28;91670;-73
2022/01/09 03:14:44;;;;;;;24.92;4.38;;;;;;;;;;5038467;28;92718;-74
2022/01/09 03:17:11;;;;;;;32.92;4.30;;;;;;;;;;5040841;28;93794;-74
2022/01/09 03:19:37;;;;;;;25.17;4.30;;;;;;;;;;5036992;28;94569;-73
2022/01/09 03:22:04;;;;;;;24.10;4.03;;;;;;;;;;5036992;28;93626;-74
2022/01/09 03:24:30;;;;;;;16.05;4.30;;;;;;;;;;5038358;28;92148;-74
2022/01/09 03:26:56;;;;;;;19.85;4.13;;;;;;;;;;5038432;28;93580;-73
2022/01/09 03:29:23;;;;;;;24.67;3.75;;;;;;;;;;5038070;28;93493;-73
2022/01/09 03:31:49;;;;;;;20.10;3.38;;;;;;;;;;5038441;28;92196;-74
2022/01/09 03:34:15;;;;;;;30.48;4.00;;;;;;;;;;5038088;28;92770;-73
2022/01/09 03:36:42;;;;;;;31.25;4.75;;;;;;;;;;5038045;28;92928;-73
2022/01/09 03:39:08;;;;;;;26.73;3.83;;;;;;;;;;5041200;28;92155;-73
2022/01/09 03:41:35;;;;;;;26.10;4.03;;;;;;;;;;5038102;28;93760;-74
2022/01/09 03:44:01;;;;;;;27.40;3.90;;;;;;;;;;5036269;28;94519;-74
2022/01/09 03:46:28;;;;;;;24.58;4.00;;;;;;;;;;5036762;27;95761;-74
2022/01/09 03:48:54;;;;;;;16.80;3.28;;;;;;;;;;5037719;28;93667;-74
2022/01/09 03:51:24;;;;;;;20.63;2.88;;;;;;;;;;5037458;28;92851;-73
2022/01/09 03:53:51;;;;;;;25.98;4.75;;;;;;;;;;5037702;28;93858;-74
2022/01/09 03:56:17;;;;;;;31.17;3.42;;;;;;;;;;5037665;28;93603;-74
2022/01/09 03:58:44;;;;;;;31.25;4.18;;;;;;;;;;5037740;28;92289;-73
2022/01/09 04:01:10;;;;;;;21.30;3.92;;;;;;;;;;5040957;28;93460;-74
2022/01/09 04:03:38;;;;;;;26.17;3.47;;;;;;;;;;5037311;28;92274;-74
2022/01/09 04:06:05;;;;;;;19.90;3.63;;;;;;;;;;5037633;28;93301;-73
2022/01/09 04:08:34;;;;;;;26.00;3.10;;;;;;;;;;5034634;28;96469;-74
2022/01/09 04:11:02;;;;;;;35.30;4.63;;;;;;;;;;5037673;28;92234;-74
2022/01/09 04:13:32;;;;;;;25.35;3.83;;;;;;;;;;5037998;28;93794;-74
2022/01/09 04:15:59;;;;;;;17.90;3.30;;;;;;;;;;5037614;28;93484;-74
2022/01/09 04:18:25;;;;;;;23.35;3.63;;;;;;;;;;5037014;28;92462;-75
2022/01/09 04:20:52;;;;;;;16.67;2.78;;;;;;;;;;5037623;28;93507;-74
2022/01/09 04:23:19;;;;;;;25.17;3.25;;;;;;;;;;5041018;28;93559;-74
2022/01/09 04:25:45;;;;;;;30.88;3.92;;;;;;;;;;5038393;28;93824;-74
2022/01/09 04:28:13;;;;;;;23.98;3.30;;;;;;;;;;5037364;28;93814;-73
2022/01/09 04:30:39;;;;;;;24.15;3.17;;;;;;;;;;5037289;28;92290;-74
2022/01/09 04:33:06;;;;;;;21.27;3.45;;;;;;;;;;5035615;28;94764;-73
2022/01/09 04:35:32;;;;;;;33.05;4.75;;;;;;;;;;5036960;27;93521;-73
2022/01/09 04:37:59;;;;;;;19.75;3.33;;;;;;;;;;5037269;28;92116;-72
2022/01/09 04:40:25;;;;;;;24.27;3.53;;;;;;;;;;5037202;28;93713;-73
2022/01/09 04:42:55;;;;;;;23.95;3.70;;;;;;;;;;5037051;28;93717;-73
2022/01/09 04:45:23;;;;;;;22.10;3.47;;;;;;;;;;5039785;28;92417;-74
2022/01/09 04:47:51;;;;;;;25.27;4.07;;;;;;;;;;5036993;28;94022;-74
2022/01/09 04:50:26;;;;;;;22.30;3.08;;;;;;;;;;5037646;27;91577;-74
2022/01/09 04:52:59;;;;;;;18.05;3.33;;;;;;;;;;5037082;28;92708;-73
2022/01/09 04:55:30;;;;;;;29.40;4.00;;;;;;;;;;5036774;28;94091;-73
2022/01/09 04:57:56;;;;;;;24.65;3.83;;;;;;;;;;5036090;27;94724;-73
2022/01/09 05:00:23;;;;;;;24.08;3.13;;;;;;;;;;5039613;28;95868;-74
2022/01/09 05:02:49;;;;;;;17.17;3.55;;;;;;;;;;5040377;28;93416;-74
2022/01/09 05:05:16;;;;;;;17.38;3.88;;;;;;;;;;5040605;28;92490;-74
2022/01/09 05:07:42;;;;;;;15.00;2.70;;;;;;;;;;5043493;28;93526;-73
2022/01/09 05:10:09;;;;;;;24.92;3.28;;;;;;;;;;5039584;28;92331;-74
2022/01/09 05:12:35;;;;;;;17.27;2.78;;;;;;;;;;5040037;28;93390;-74
2022/01/09 05:15:03;;;;;;;11.93;2.72;;;;;;;;;;5040865;28;92112;-74
2022/01/09 05:17:29;;;;;;;28.10;3.35;;;;;;;;;;5040154;28;92335;-73
2022/01/09 05:19:59;;;;;;;21.45;3.67;;;;;;;;;;5040327;27;93247;-74
2022/01/09 05:22:26;;;;;;;15.90;2.97;;;;;;;;;;5038526;28;95990;-74
2022/01/09 05:24:54;;;;;;;21.85;3.40;;;;;;;;;;5040400;28;92269;-74
2022/01/09 05:27:21;;;;;;;25.63;3.78;;;;;;;;;;5043736;28;93349;-74
2022/01/09 05:29:47;;;;;;;17.77;3.45;;;;;;;;;;5043092;28;92441;-73
2022/01/09 05:32:14;;;;;;;20.60;3.15;;;;;;;;;;5042686;28;93665;-74
2022/01/09 05:34:40;;;;;;;26.30;4.47;;;;;;;;;;5040769;28;93704;-74
2022/01/09 05:37:07;;;;;;;19.00;3.85;;;;;;;;;;5040822;28;92329;-74
2022/01/09 05:39:34;;;;;;;10.50;2.45;;;;;;;;;;5041645;28;93587;-74
2022/01/09 05:42:01;;;;;;;17.10;2.60;;;;;;;;;;5040091;28;93846;-74
2022/01/09 05:44:28;;;;;;;19.27;3.75;;;;;;;;;;5040399;28;92179;-74
2022/01/09 05:46:54;;;;;;;24.10;3.58;;;;;;;;;;5038277;28;94688;-74
2022/01/09 05:49:20;;;;;;;28.60;4.13;;;;;;;;;;5042596;28;93075;-74
2022/01/09 05:51:47;;;;;;;28.08;3.80;;;;;;;;;;5040039;28;92962;-74
2022/01/09 05:54:13;;;;;;;16.67;2.90;;;;;;;;;;5039475;28;93026;-74
2022/01/09 05:56:39;;;;;;;22.08;3.30;;;;;;;;;;5039482;28;93442;-74
2022/01/09 05:59:06;;;;;;;22.40;3.45;;;;;;;;;;5038262;28;94254;-73
2022/01/09 06:01:32;;;;;;;22.00;3.13;;;;;;;;;;5039469;28;92333;-74
2022/01/09 06:03:58;;;;;;;20.67;3.08;;;;;;;;;;5040077;28;91646;-74
2022/01/09 06:06:25;;;;;;;14.50;3.55;;;;;;;;;;5039568;28;92322;-74
2022/01/09 06:08:51;;;;;;;22.88;2.95;;;;;;;;;;5038572;27;93209;-75
2022/01/09 06:11:18;;;;;;;14.88;2.83;;;;;;;;;;5040674;28;95494;-74
2022/01/09 06:13:44;;;;;;;13.25;2.90;;;;;;;;;;5039002;28;93511;-74
2022/01/09 06:16:10;;;;;;;14.07;2.58;;;;;;;;;;5039411;28;92172;-74
2022/01/09 06:18:37;;;;;;;15.20;2.72;;;;;;;;;;5038549;28;93228;-73
2022/01/09 06:21:03;;;;;;;15.27;3.33;;;;;;;;;;5037935;28;95712;-73
2022/01/09 06:23:29;;;;;;;16.48;3.22;;;;;;;;;;5039155;28;92318;-73
2022/01/09 06:25:56;;;;;;;17.77;2.70;;;;;;;;;;5037974;28;93053;-75
2022/01/09 06:28:22;;;;;;;18.98;3.03;;;;;;;;;;5039546;28;92519;-74
2022/01/09 06:30:49;;;;;;;13.38;3.67;;;;;;;;;;5038890;28;92307;-74
2022/01/09 06:33:15;;;;;;;19.85;3.30;;;;;;;;;;5042203;28;93394;-73
2022/01/09 06:35:42;;;;;;;15.52;2.97;;;;;;;;;;5037413;28;94704;-73
2022/01/09 06:38:08;;;;;;;17.77;3.15;;;;;;;;;;5038674;28;95324;-74
2022/01/09 06:40:35;;;;;;;14.55;2.90;;;;;;;;;;5038424;28;93265;-74
2022/01/09 06:43:02;;;;;;;18.52;3.13;;;;;;;;;;5039003;28;92293;-74
2022/01/09 06:45:28;;;;;;;11.48;3.00;;;;;;;;;;5038918;28;93384;-73
2022/01/09 06:47:55;;;;;;;20.55;2.75;;;;;;;;;;5038578;28;93688;-73
2022/01/09 06:50:22;;;;;;;11.05;2.72;;;;;;;;;;5038924;27;92380;-75
2022/01/09 06:52:48;;;;;;;15.15;3.00;;;;;;;;;;5038776;28;93536;-73
2022/01/09 06:55:14;;;;;;;19.15;3.15;;;;;;;;;;5041859;28;93593;-73
2022/01/09 06:57:41;;;;;;;12.10;2.58;;;;;;;;;;5038634;28;93390;-72
2022/01/09 07:00:10;;;;;;;16.65;2.97;;;;;;;;;;5036869;27;95507;-72
2022/01/09 07:02:36;;;;;;;18.27;3.53;;;;;;;;;;5038591;28;92495;-73
2022/01/09 07:05:03;;;;;;;20.23;3.40;;;;;;;;;;5038711;28;93693;-73
2022/01/09 07:07:30;;;;;;;13.70;2.50;;;;;;;;;;5038114;28;93639;-73
2022/01/09 07:09:56;;;;;;;13.57;3.17;;;;;;;;;;5038426;28;92289;-75
2022/01/09 07:12:22;;;;;;;10.18;2.58;;;;;;;;;;5038472;28;93353;-74
2022/01/09 07:14:49;;;;;;;14.75;2.90;;;;;;;;;;5038143;28;93724;-75
2022/01/09 07:17:15;;;;;;;18.58;3.10;;;;;;;;;;5041352;28;92673;-74
2022/01/09 07:19:41;;;;;;;9.55;3.05;;;;;;;;;;5038178;28;93985;-74
2022/01/09 07:22:08;;;;;;;18.15;3.00;;;;;;;;;;5037651;28;92265;-74
2022/01/09 07:24:34;;;;;;;18.50;3.10;;;;;;;;;;5036983;28;94537;-75
2022/01/09 07:27:01;;;;;;;12.05;2.50;;;;;;;;;;5035414;28;93395;-75
2022/01/09 07:29:28;;;;;;;20.33;3.53;;;;;;;;;;5038086;27;92341;-75
2022/01/09 07:31:55;;;;;;;16.17;3.17;;;;;;;;;;5038448;28;92938;-75
2022/01/09 07:34:22;;;;;;;19.50;3.03;;;;;;;;;;5037991;28;92271;-75
2022/01/09 07:36:49;;;;;;;14.73;2.67;;;;;;;;;;5041276;28;92376;-74
2022/01/09 07:39:15;;;;;;;10.65;2.45;;;;;;;;;;5037955;28;93995;-74
2022/01/09 07:41:42;;;;;;;17.65;2.80;;;;;;;;;;5038501;28;91404;-75
2022/01/09 07:44:09;;;;;;;4.50;2.00;;;;;;;;;;5036747;28;95180;-75
2022/01/09 07:46:35;;;;;;;10.40;2.20;;;;;;;;;;5037821;28;93510;-75
2022/01/09 07:49:02;;;;;;;10.02;2.15;;;;;;;;;;5036396;28;94664;-75
2022/01/09 07:51:28;;;;;;;10.88;2.58;;;;;;;;;;5037716;28;95874;-74
2022/01/09 07:54:15;;;;;;;9.55;2.40;;;;;;;;;;5037584;28;93336;-75
2022/01/09 07:56:42;;;;;;;11.52;3.00;;;;;;;;;;5036819;28;92367;-75
2022/01/09 07:59:09;;;;;;;15.40;2.45;;;;;;;;;;5040507;28;92677;-74
2022/01/09 08:01:35;;;;;;;13.60;3.58;;;;;;;;;;5019925;27;92748;-74
2022/01/09 08:04:01;;;;;;;10.52;2.60;;;;;;;;;;5017542;28;92916;-75
2022/01/09 08:06:28;;;;;;;12.00;2.25;;;;;;;;;;5017602;28;92708;-74
2022/01/09 08:08:54;;;;;;;15.40;3.53;;;;;;;;;;5017519;28;92324;-73
2022/01/09 08:11:22;;;;;;;12.23;2.65;;;;;;;;;;5017455;28;93443;-72
2022/01/09 08:13:49;;;;;;;16.27;2.45;;;;;;;;;;5015627;28;96149;-72
2022/01/09 08:16:15;;;;;;;7.65;2.13;;;;;;;;;;5017081;28;92492;-74
2022/01/09 08:18:42;;;;;;;9.98;2.10;;;;;;;;;;5016882;28;93643;-73
2022/01/09 08:21:08;;;;;;;10.88;2.63;;;;;;;;;;5020002;28;93135;-74
2022/01/09 08:23:36;;;;;;;6.28;1.95;;;;;;;;;;5016033;28;94483;-74
2022/01/09 08:26:03;;;;;;;9.32;2.20;;;;;;;;;;5016465;28;93538;-76
2022/01/09 08:28:29;;;;;;;17.10;3.03;;;;;;;;;;5017190;28;92323;-75
2022/01/09 08:30:55;;;;;;;9.10;2.50;;;;;;;;;;5017464;28;93742;-74
2022/01/09 08:33:25;;;;;;;11.60;2.67;;;;;;;;;;5016223;28;92673;-73
2022/01/09 08:35:51;;;;;;;16.55;2.55;;;;;;;;;;4999277;28;93225;-74
2022/01/09 08:38:20;;;;;;;9.43;2.20;;;;;;;;;;4995592;28;94672;-74
2022/01/09 08:40:47;;;;;;;13.00;2.30;;;;;;;;;;4997083;28;93111;-73
2022/01/09 08:43:13;;;;;;;11.10;2.50;;;;;;;;;;4999585;28;92303;-75
2022/01/09 08:45:39;;;;;;;13.73;2.40;;;;;;;;;;4998730;28;93746;-74
2022/01/09 08:48:06;;;;;;;10.10;2.33;;;;;;;;;;4999014;28;93008;-74
2022/01/09 08:50:33;;;;;;;9.65;2.25;;;;;;;;;;4996918;28;93629;-74
2022/01/09 08:52:59;;;;;;;9.48;2.33;;;;;;;;;;4996495;28;93992;-74
2022/01/09 08:55:26;;;;;;;16.58;2.90;;;;;;;;;;4997340;28;91540;-75
2022/01/09 08:57:52;;;;;;;9.82;2.50;;;;;;;;;;4996518;28;93112;-74
2022/01/09 09:00:18;;;;;;;13.07;2.45;;;;;;;;;;4996341;28;93432;-74
2022/01/09 09:02:46;;;;;;;19.77;2.72;;;;;;;;;;4994996;28;94742;-74
2022/01/09 09:05:13;;;;;;;17.75;2.65;;;;;;;;;;4999493;28;95978;-74
2022/01/09 09:07:39;;;;;;;14.18;2.78;;;;;;;;;;4996722;28;92277;-74
2022/01/09 09:10:06;;;;;;;9.77;2.00;;;;;;;;;;4996824;28;93416;-75
2022/01/09 09:12:33;;;;;;;13.90;2.97;;;;;;;;;;4995784;28;93679;-74
2022/01/09 09:15:00;;;;;;;12.90;2.83;;;;;;;;;;4996599;28;92394;-74
2022/01/09 09:17:33;;;;;;;14.77;2.78;;;;;;;;;;5001913;28;93430;-74
2022/01/09 09:20:00;;;;;;;10.05;2.42;;;;;;;;;;5006127;28;91534;-74
2022/01/09 09:22:26;;;;;;;10.82;1.90;;;;;;;;;;5007158;28;92408;-74
2022/01/09 09:24:53;;;;;;;10.05;2.47;;;;;;;;;;5008115;28;93404;-74
2022/01/09 09:27:21;;;;;;;17.05;3.25;;;;;;;;;;5011636;28;94881;-74
2022/01/09 09:29:47;;;;;;;11.90;2.20;;;;;;;;;;5007037;28;95363;-74
2022/01/09 09:32:13;;;;;;;13.65;2.65;;;;;;;;;;5004717;28;93440;-73
2022/01/09 09:34:41;;;;;;;14.55;2.88;;;;;;;;;;5006270;28;92303;-73
2022/01/09 09:37:08;;;;;;;13.23;2.63;;;;;;;;;;4996443;28;93546;-73
2022/01/09 09:39:34;;;;;;;8.25;2.10;;;;;;;;;;4996433;28;94072;-73
2022/01/09 09:42:01;;;;;;;8.68;1.75;;;;;;;;;;5000701;28;92322;-74
2022/01/09 09:44:27;;;;;;;9.70;2.75;;;;;;;;;;5008963;28;93396;-74
2022/01/09 09:46:53;;;;;;;9.55;2.33;;;;;;;;;;5025112;28;93661;-74
2022/01/09 09:49:22;;;;;;;14.70;2.63;;;;;;;;;;5021728;28;93373;-74
2022/01/09 09:51:48;;;;;;;10.45;2.30;;;;;;;;;;5017540;28;96164;-74
2022/01/09 09:54:18;;;;;;;13.00;3.00;;;;;;;;;;5019594;28;92320;-74
2022/01/09 09:56:45;;;;;;;15.02;2.67;;;;;;;;;;5019544;28;93747;-73
2022/01/09 09:59:11;;;;;;;11.38;2.30;;;;;;;;;;5009096;28;93467;-74
2022/01/09 10:01:41;;;;;;;12.95;2.90;;;;;;;;;;5008526;28;92362;-75
2022/01/09 10:04:08;;;;;;;12.90;3.33;;;;;;;;;;5009272;28;94546;-74
2022/01/09 10:06:41;;;;;;;14.27;2.85;;;;;;;;;;5007622;28;92837;-75
2022/01/09 10:09:12;;;;;;;12.65;2.47;;;;;;;;;;5011764;28;92119;-74
2022/01/09 10:11:49;;;;;;;8.70;2.20;;;;;;;;;;5008663;28;93630;-71
2022/01/09 10:14:22;;;;;;;11.68;3.33;;;;;;;;;;5008041;28;92363;-75
2022/01/09 10:17:19;;;;;;;8.52;2.60;;;;;;;;;;5008243;28;96177;-74
2022/01/09 10:20:01;;;;;;;13.45;3.45;;;;;;;;;;5008658;28;93237;-75
2022/01/09 10:22:32;;;;;;;13.95;2.58;;;;;;;;;;5009436;28;92412;-72
2022/01/09 10:25:17;;;;;;;15.32;2.85;;;;;;;;;;5008759;28;93838;-73
2022/01/09 10:27:44;;;;;;;9.02;2.58;;;;;;;;;;5009203;28;93648;-74
2022/01/09 10:30:11;;;;;;;12.23;2.53;;;;;;;;;;5007759;28;92357;-75
2022/01/09 10:32:37;;;;;;;11.38;3.03;;;;;;;;;;5011106;28;93835;-73
2022/01/09 10:35:07;;;;;;;16.25;3.45;;;;;;;;;;5009987;28;92433;-74
2022/01/09 10:37:35;;;;;;;11.25;2.65;;;;;;;;;;5008058;28;92951;-73
2022/01/09 10:40:03;;;;;;;17.90;2.83;;;;;;;;;;5003991;28;93542;-74
2022/01/09 10:42:29;;;;;;;13.82;3.45;;;;;;;;;;4997158;28;94829;-72
2022/01/09 10:44:55;;;;;;;13.15;3.22;;;;;;;;;;4998697;28;96313;-73
2022/01/09 10:47:34;;;;;;;18.17;3.35;;;;;;;;;;4998549;28;93689;-74
2022/01/09 10:50:01;;;;;;;20.58;3.33;;;;;;;;;;4998794;28;92432;-74
2022/01/09 10:52:30;;;;;;;16.40;2.58;;;;;;;;;;4979624;28;93281;-75
2022/01/09 10:54:57;;;;;;;17.52;3.03;;;;;;;;;;5001288;28;93178;-74
2022/01/09 10:57:37;;;;;;;15.60;3.22;;;;;;;;;;4998468;28;92755;-74
2022/01/09 11:00:08;;;;;;;16.27;2.78;;;;;;;;;;4998664;28;92811;-75
2022/01/09 11:02:35;;;;;;;18.00;3.10;;;;;;;;;;4998494;28;92231;-72
2022/01/09 11:05:02;;;;;;;12.32;2.85;;;;;;;;;;4997267;28;93684;-76
2022/01/09 11:07:29;;;;;;;11.73;2.20;;;;;;;;;;4996529;28;96066;-75
2022/01/09 11:09:57;;;;;;;18.52;2.83;;;;;;;;;;4998137;28;92341;-76
2022/01/09 11:12:30;;;;;;;15.98;2.85;;;;;;;;;;4998307;28;92612;-76
2022/01/09 11:14:58;;;;;;;14.02;2.90;;;;;;;;;;4998259;28;93142;-74
2022/01/09 11:17:27;;;;;;;13.27;3.00;;;;;;;;;;4999995;28;92229;-75
2022/01/09 11:20:17;;;;;;;9.85;2.03;;;;;;;;;;4994868;28;93209;-77
2022/01/09 11:22:44;;;;;;;6.43;1.63;;;;;;;;;;4997721;28;92333;-74
2022/01/09 11:25:16;;;;;;;14.32;2.10;;;;;;;;;;4998668;28;93040;-74
2022/01/09 11:27:45;;;;;;;15.63;2.58;;;;;;;;;;5009257;28;93185;-75
2022/01/09 11:30:14;;;;;;;7.75;2.42;;;;;;;;;;5010547;28;92354;-74
2022/01/09 11:32:52;;;;;;;9.00;2.22;;;;;;;;;;5016792;28;95423;-74
2022/01/09 11:35:31;;;;;;;7.95;1.75;;;;;;;;;;4996991;28;93010;-75
2022/01/09 11:38:24;;;;;;;13.63;3.00;;;;;;;;;;5008466;28;92334;-75
2022/01/09 11:40:50;;;;;;;8.10;2.30;;;;;;;;;;5017473;28;93080;-77
2022/01/09 11:43:18;;;;;;;13.60;2.47;;;;;;;;;;5017801;28;92408;-76
2022/01/09 11:45:49;;;;;;;16.15;2.20;;;;;;;;;;5017892;28;93626;-77
2022/01/09 11:48:17;;;;;;;12.70;2.20;;;;;;;;;;5017498;28;94004;-75
2022/01/09 11:51:02;;;;;;;6.80;1.77;;;;;;;;;;5018279;28;91560;-75
2022/01/09 11:53:28;;;;;;;10.50;1.70;;;;;;;;;;5017848;28;92678;-77
2022/01/09 11:55:54;;;;;;;5.95;1.77;;;;;;;;;;5016627;28;95742;-77
2022/01/09 11:58:22;;;;;;;10.18;1.85;;;;;;;;;;5015880;28;94748;-76
2022/01/09 12:00:51;;;;;;;6.15;1.80;;;;;;;;;;5019484;28;95743;-76
2022/01/09 12:03:27;;;;;;;9.52;1.80;;;;;;;;;;5017267;28;92397;-75
2022/01/09 12:06:04;;;;;;;12.88;2.13;;;;;;;;;;5017655;28;92754;-74
2022/01/09 12:08:49;;;;;;;11.27;2.17;;;;;;;;;;5016385;28;93808;-75
2022/01/09 12:11:16;;;;;;;8.65;1.67;;;;;;;;;;5017295;28;94020;-74
2022/01/09 12:13:42;;;;;;;14.13;3.03;;;;;;;;;;5017172;28;92942;-75
2022/01/09 12:16:29;;;;;;;13.07;2.20;;;;;;;;;;5017760;28;92281;-75
2022/01/09 12:18:55;;;;;;;12.70;2.55;;;;;;;;;;5016822;28;92465;-74
2022/01/09 12:21:40;;;;;;;9.43;2.70;;;;;;;;;;5017312;28;92845;-75
2022/01/09 12:24:25;;;;;;;11.27;2.10;;;;;;;;;;5018181;28;95377;-75
2022/01/09 12:26:51;;;;;;;10.05;2.58;;;;;;;;;;5017190;28;95834;-75
2022/01/09 12:29:36;;;;;;;8.02;2.15;;;;;;;;;;5017056;28;93720;-74
2022/01/09 12:32:22;;;;;;;6.60;2.30;;;;;;;;;;5017042;28;92274;-76
2022/01/09 12:35:09;;;;;;;9.93;1.92;;;;;;;;;;5016306;28;93847;-75
2022/01/09 12:37:35;;;;;;;3.75;1.42;;;;;;;;;;5016477;28;93795;-75
2022/01/09 12:40:03;;;;;;;3.60;1.33;;;;;;;;;;5017161;28;92294;-75
2022/01/09 12:42:30;;;;;;;3.38;1.40;;;;;;;;;;5017583;28;93217;-74
2022/01/09 12:44:56;;;;;;;5.03;1.50;;;;;;;;;;5015662;28;93463;-74
2022/01/09 12:47:23;;;;;;;5.38;1.52;;;;;;;;;;5020204;28;92373;-73
2022/01/09 12:49:59;;;;;;;6.32;1.83;;;;;;;;;;5015308;28;95439;-74
2022/01/09 12:52:26;;;;;;;4.70;1.42;;;;;;;;;;5016771;28;92551;-73
2022/01/09 12:55:09;;;;;;;3.97;1.80;;;;;;;;;;5016930;28;93460;-73
2022/01/09 12:57:55;;;;;;;5.00;1.50;;;;;;;;;;5016609;28;93403;-73
2022/01/09 13:00:29;;;;;;;4.57;1.63;;;;;;;;;;5016633;28;93548;-75
2022/01/09 13:02:56;;;;;;;4.88;1.60;;;;;;;;;;5004534;28;93351;-74
2022/01/09 13:05:23;;;;;;;6.10;1.88;;;;;;;;;;4995624;28;92575;-75
2022/01/09 13:08:00;;;;;;;2.42;1.40;;;;;;;;;;4996787;28;91612;-76
2022/01/09 13:10:30;;;;;;;6.47;1.83;;;;;;;;;;4964044;28;92855;-75
2022/01/09 13:13:07;;;;;;;6.00;2.05;;;;;;;;;;4996753;28;92584;-74
2022/01/09 13:15:37;;;;;;;8.30;1.88;;;;;;;;;;4995041;28;94805;-76
2022/01/09 13:18:04;;;;;;;6.18;2.00;;;;;;;;;;4995919;28;93497;-74
2022/01/09 13:20:31;;;;;;;9.95;2.00;;;;;;;;;;4999856;28;92318;-75
2022/01/09 13:23:04;;;;;;;6.45;1.88;;;;;;;;;;4998894;28;94897;-74
2022/01/09 13:25:40;;;;;;;8.15;2.13;;;;;;;;;;4999859;28;93567;-73
2022/01/09 13:28:06;;;;;;;7.50;2.00;;;;;;;;;;5006949;28;92421;-74
2022/01/09 13:30:33;;;;;;;5.75;1.85;;;;;;;;;;5020049;28;93338;-76
2022/01/09 13:33:02;;;;;;;4.00;1.77;;;;;;;;;;5023262;28;93283;-75
2022/01/09 13:35:29;;;;;;;8.38;1.73;;;;;;;;;;5021533;28;93157;-75
2022/01/09 13:37:57;;;;;;;7.97;2.28;;;;;;;;;;5022125;28;93965;-76
2022/01/09 13:40:23;;;;;;;10.95;2.63;;;;;;;;;;5021330;28;94717;-73
2022/01/09 13:42:50;;;;;;;11.50;2.78;;;;;;;;;;5015542;28;95310;-72
2022/01/09 13:45:20;;;;;;;13.23;3.22;;;;;;;;;;5001096;28;93691;-71
2022/01/09 13:47:51;;;;;;;10.55;2.70;;;;;;;;;;5000476;28;93367;-75
2022/01/09 13:50:21;;;;;;;13.68;2.67;;;;;;;;;;5001482;28;92976;-73
2022/01/09 13:52:48;;;;;;;14.57;3.08;;;;;;;;;;5010157;28;93344;-72
2022/01/09 13:55:16;;;;;;;10.20;2.33;;;;;;;;;;5008806;28;92783;-73
2022/01/09 13:58:01;;;;;;;10.25;2.38;;;;;;;;;;5009064;28;92925;-72
2022/01/09 14:00:29;;;;;;;10.40;2.63;;;;;;;;;;5009416;28;92449;-71
2022/01/09 14:02:57;;;;;;;21.20;6.32;;;;;;;;;;5007953;28;92489;-73
2022/01/09 14:05:40;;;;;;;28.08;8.13;;;;;;;;;;5008706;28;95882;-72
2022/01/09 14:08:10;;;;;;;17.30;6.90;;;;;;;;;;5019527;28;92191;-72
2022/01/09 14:10:41;;;;;;;15.20;5.10;;;;;;;;;;5018866;28;93142;-72
2022/01/09 14:13:12;;;;;;;16.23;4.93;;;;;;;;;;5018805;28;93408;-72
2022/01/09 14:15:41;;;;;;;23.75;7.88;;;;;;;;;;5022176;28;92305;-71
2022/01/09 14:18:20;;;;;;;20.25;6.57;;;;;;;;;;5018555;28;93796;-70
2022/01/09 14:20:47;;;;;;;13.00;4.50;;;;;;;;;;5019134;28;92308;-70
2022/01/09 14:23:13;;;;;;;16.20;4.30;;;;;;;;;;5012272;28;93621;-71
2022/01/09 14:25:41;;;;;;;27.27;6.78;;;;;;;;;;4998877;28;93982;-71
2022/01/09 14:28:09;;;;;;;26.40;10.05;;;;;;;;;;4998986;28;92362;-71
2022/01/09 14:30:43;;;;;;;15.27;6.25;;;;;;;;;;4995600;28;94655;-71
2022/01/09 14:33:09;;;;;;;17.23;4.32;;;;;;;;;;4981095;28;96081;-70
2022/01/09 14:35:38;;;;;;;20.92;6.88;;;;;;;;;;4998914;28;92267;-71
2022/01/09 14:38:06;;;;;;;13.27;4.80;;;;;;;;;;5001890;28;92515;-71
2022/01/09 14:40:33;;;;;;;15.90;5.28;;;;;;;;;;4997547;28;92509;-73
2022/01/09 14:43:00;;;;;;;16.25;5.82;;;;;;;;;;4999022;28;93520;-72